createdAt,value
2023-04-29T00:02:58.185Z,100.00
2023-04-29T00:07:59.724Z,100.00
2023-04-29T00:13:01.233Z,100.00
2023-04-29T00:18:03.294Z,100.00
2023-04-29T00:23:04.888Z,100.00
2023-04-29T00:28:06.476Z,100.00
2023-04-29T00:33:08.072Z,100.00
2023-04-29T00:38:09.656Z,100.00
2023-04-29T00:43:11.149Z,100.00
2023-04-29T00:48:15.147Z,100.00
2023-04-29T00:53:17.299Z,100.00
2023-04-29T00:58:20.098Z,100.00
2023-04-29T01:03:22.744Z,100.00
2023-04-29T01:08:41.143Z,100.00
2023-04-29T01:13:51.584Z,100.00
2023-04-29T01:19:01.421Z,100.00
2023-04-29T01:24:02.928Z,100.00
2023-04-29T01:29:42.324Z,100.00
2023-04-29T01:34:59.571Z,100.00
2023-04-29T01:40:25.830Z,100.00
2023-04-29T01:45:28.784Z,100.00
2023-04-29T01:50:30.465Z,100.00
2023-04-29T01:55:31.947Z,100.00
2023-04-29T02:00:33.548Z,100.00
2023-04-29T02:05:35.942Z,100.00
2023-04-29T02:10:37.471Z,100.00
2023-04-29T02:15:38.939Z,100.00
2023-04-29T02:20:40.465Z,100.00
2023-04-29T02:25:41.918Z,100.00
2023-04-29T02:30:43.477Z,100.00
2023-04-29T02:35:45.064Z,100.00
2023-04-29T02:40:47.141Z,100.00
2023-04-29T02:45:48.712Z,100.00
2023-04-29T02:50:50.318Z,100.00
2023-04-29T02:55:51.851Z,100.00
2023-04-29T03:00:53.498Z,100.00
2023-04-29T03:05:54.983Z,100.00
2023-04-29T03:10:56.488Z,100.00
2023-04-29T03:15:59.816Z,100.00
2023-04-29T03:21:01.419Z,100.00
2023-04-29T03:26:03.229Z,100.00
2023-04-29T03:31:05.043Z,100.00
2023-04-29T03:36:08.532Z,100.00
2023-04-29T03:41:11.193Z,100.00
2023-04-29T03:46:12.768Z,100.00
2023-04-29T03:51:14.456Z,100.00
2023-04-29T03:56:17.496Z,100.00
2023-04-29T04:01:19.487Z,100.00
2023-04-29T04:06:21.265Z,100.00
2023-04-29T04:11:22.795Z,100.00
2023-04-29T04:16:24.349Z,100.00
2023-04-29T04:21:27.312Z,100.00
2023-04-29T04:26:28.810Z,100.00
2023-04-29T04:31:30.982Z,100.00
2023-04-29T04:36:32.818Z,100.00
2023-04-29T04:41:34.344Z,100.00
2023-04-29T04:46:36.922Z,100.00
2023-04-29T04:51:38.445Z,100.00
2023-04-29T04:56:40.012Z,100.00
2023-04-29T05:01:41.583Z,100.00
2023-04-29T05:06:43.350Z,100.00
2023-04-29T05:11:44.822Z,100.00
2023-04-29T05:16:46.777Z,100.00
2023-04-29T05:21:48.308Z,100.00
2023-04-29T05:26:51.948Z,100.00
2023-04-29T05:31:53.488Z,100.00
2023-04-29T05:36:54.996Z,100.00
2023-04-29T05:41:56.906Z,100.00
2023-04-29T05:46:58.976Z,100.00
2023-04-29T05:52:04.091Z,100.00
2023-04-29T05:57:05.651Z,100.00
2023-04-29T06:02:07.186Z,100.00
2023-04-29T06:07:09.390Z,100.00
2023-04-29T06:12:11.222Z,100.00
2023-04-29T06:17:12.927Z,100.00
2023-04-29T06:22:14.482Z,100.00
2023-04-29T06:27:16.390Z,100.00
2023-04-29T06:32:18.341Z,100.00
2023-04-29T06:37:19.884Z,100.00
2023-04-29T06:42:21.477Z,100.00
2023-04-29T06:47:23.390Z,100.00
2023-04-29T06:52:24.943Z,100.00
2023-04-29T06:57:27.167Z,98.54
2023-04-29T07:02:28.827Z,92.05
2023-04-29T07:07:30.412Z,91.70
2023-04-29T07:12:31.943Z,93.18
2023-04-29T07:17:33.538Z,93.79
2023-04-29T07:22:35.164Z,93.32
2023-04-29T07:27:37.152Z,94.03
2023-04-29T07:32:38.747Z,93.87
2023-04-29T07:37:43.855Z,95.00
2023-04-29T07:42:45.587Z,96.47
2023-04-29T07:47:47.214Z,97.47
2023-04-29T07:52:48.769Z,97.47
2023-04-29T07:57:50.352Z,96.66
2023-04-29T08:02:52.774Z,95.68
2023-04-29T08:07:54.365Z,94.06
2023-04-29T08:12:56.174Z,92.75
2023-04-29T08:17:57.802Z,92.33
2023-04-29T08:23:00.694Z,93.04
2023-04-29T08:28:02.174Z,91.81
2023-04-29T08:33:03.866Z,92.22
2023-04-29T08:38:06.748Z,91.81
2023-04-29T08:43:10.227Z,91.15
2023-04-29T08:48:12.620Z,89.92
2023-04-29T08:53:14.723Z,89.10
2023-04-29T08:58:16.973Z,87.68
2023-04-29T09:03:27.317Z,86.57
2023-04-29T09:08:30.503Z,85.03
2023-04-29T09:13:35.263Z,84.63
2023-04-29T09:18:46.915Z,83.19
2023-04-29T09:23:50.407Z,84.36
2023-04-29T09:29:13.979Z,82.95
2023-04-29T09:34:16.412Z,81.71
2023-04-29T09:39:22.473Z,81.39
2023-04-29T09:44:27.266Z,79.21
2023-04-29T09:49:38.658Z,80.86
2023-04-29T09:54:41.216Z,79.04
2023-04-29T09:59:43.517Z,78.53
2023-04-29T10:04:47.046Z,75.53
2023-04-29T10:09:49.208Z,74.51
2023-04-29T10:14:58.094Z,70.71
2023-04-29T10:20:02.302Z,70.11
2023-04-29T10:25:07.703Z,66.65
2023-04-29T10:30:13.998Z,67.55
2023-04-29T10:35:19.113Z,66.26
2023-04-29T10:40:43.755Z,68.85
2023-04-29T10:45:45.814Z,68.80
2023-04-29T10:50:47.369Z,68.00
2023-04-29T10:56:00.038Z,68.81
2023-04-29T11:01:01.782Z,69.12
2023-04-29T11:06:09.658Z,68.02
2023-04-29T11:11:13.889Z,67.63
2023-04-29T11:16:15.610Z,67.21
2023-04-29T11:21:17.121Z,67.90
2023-04-29T11:26:20.037Z,68.28
2023-04-29T11:31:21.612Z,67.65
2023-04-29T11:36:23.757Z,67.60
2023-04-29T11:41:26.275Z,67.32
2023-04-29T11:46:30.971Z,66.97
2023-04-29T11:51:32.744Z,66.96
2023-04-29T11:56:34.285Z,65.71
2023-04-29T12:01:36.363Z,64.91
2023-04-29T12:06:37.858Z,63.75
2023-04-29T12:11:39.726Z,61.64
2023-04-29T12:16:41.789Z,60.03
2023-04-29T12:21:50.202Z,59.01
2023-04-29T12:26:53.972Z,58.20
2023-04-29T12:31:58.456Z,59.62
2023-04-29T12:37:00.860Z,60.13
2023-04-29T12:42:02.989Z,59.25
2023-04-29T12:47:11.708Z,60.78
2023-04-29T12:52:13.920Z,60.06
2023-04-29T12:57:15.631Z,57.14
2023-04-29T13:02:17.363Z,54.67
2023-04-29T13:07:18.936Z,52.96
2023-04-29T13:12:20.578Z,53.19
2023-04-29T13:17:22.159Z,53.18
2023-04-29T13:22:23.615Z,52.91
2023-04-29T13:27:25.070Z,53.42
2023-04-29T13:32:34.736Z,51.34
2023-04-29T13:37:43.859Z,49.83
2023-04-29T13:42:49.727Z,49.67
2023-04-29T13:48:06.663Z,48.31
2023-04-29T14:03:22.409Z,47.48
2023-04-29T14:08:24.000Z,48.56
2023-04-29T14:13:25.547Z,47.55
2023-04-29T14:18:27.733Z,47.73
2023-04-29T14:23:29.208Z,48.07
2023-04-29T14:28:30.716Z,47.43
2023-04-29T14:33:32.377Z,49.23
2023-04-29T14:38:33.931Z,50.99
2023-04-29T14:43:35.810Z,54.46
2023-04-29T14:48:37.338Z,56.42
2023-04-29T14:53:39.163Z,57.97
2023-04-29T14:58:41.054Z,59.18
2023-04-29T15:03:45.054Z,55.46
2023-04-29T15:08:47.009Z,55.61
2023-04-29T15:13:48.621Z,52.03
2023-04-29T15:18:50.160Z,56.43
2023-04-29T15:23:51.708Z,61.13
2023-04-29T15:28:53.471Z,62.20
2023-04-29T15:33:55.514Z,57.60
2023-04-29T15:38:57.351Z,57.85
2023-04-29T15:43:58.966Z,58.74
2023-04-29T15:49:01.064Z,57.28
2023-04-29T15:54:02.615Z,60.28
2023-04-29T15:59:04.221Z,61.59
2023-04-29T16:04:05.832Z,62.58
2023-04-29T16:09:07.520Z,62.59
2023-04-29T16:14:08.984Z,61.75
2023-04-29T16:19:10.555Z,62.40
2023-04-29T16:24:12.820Z,62.97
2023-04-29T16:29:14.302Z,63.47
2023-04-29T16:34:15.815Z,66.71
2023-04-29T16:39:17.275Z,69.10
2023-04-29T16:44:18.804Z,70.60
2023-04-29T16:49:26.395Z,71.91
2023-04-29T16:54:27.832Z,72.11
2023-04-29T16:59:29.306Z,74.35
2023-04-29T17:04:33.832Z,75.68
2023-04-29T17:09:35.611Z,78.77
2023-04-29T17:14:39.782Z,79.60
2023-04-29T17:19:41.781Z,78.99
2023-04-29T17:24:46.018Z,78.94
2023-04-29T17:29:47.570Z,79.88
2023-04-29T17:34:49.101Z,79.58
2023-04-29T17:39:53.038Z,79.90
2023-04-29T17:44:54.680Z,82.24
2023-04-29T17:49:57.314Z,83.88
2023-04-29T17:54:59.880Z,85.42
2023-04-29T18:00:01.389Z,86.48
2023-04-29T18:05:04.784Z,87.59
2023-04-29T18:10:07.055Z,88.83
2023-04-29T18:15:09.718Z,89.80
2023-04-29T18:20:12.824Z,91.24
2023-04-29T18:25:14.354Z,92.51
2023-04-29T18:30:15.846Z,93.76
2023-04-29T18:35:17.392Z,94.81
2023-04-29T18:40:18.986Z,95.84
2023-04-29T18:45:20.695Z,96.64
2023-04-29T18:50:22.201Z,97.63
2023-04-29T18:55:24.917Z,98.11
2023-04-29T19:00:27.043Z,98.63
2023-04-29T19:05:28.713Z,99.08
2023-04-29T19:10:30.585Z,100.00
2023-04-29T19:15:32.533Z,100.00
2023-04-29T19:20:34.418Z,100.00
2023-04-29T19:25:36.038Z,100.00
2023-04-29T19:30:37.715Z,100.00
2023-04-29T19:35:39.276Z,100.00
2023-04-29T19:40:40.885Z,100.00
2023-04-29T19:45:42.643Z,100.00
2023-04-29T19:50:44.227Z,100.00
2023-04-29T19:55:45.734Z,100.00
2023-04-29T20:00:47.332Z,100.00
2023-04-29T20:05:49.329Z,100.00
2023-04-29T20:10:50.867Z,100.00
2023-04-29T20:15:54.123Z,100.00
2023-04-29T20:20:56.281Z,100.00
2023-04-29T20:25:58.317Z,100.00
2023-04-29T20:30:59.923Z,100.00
2023-04-29T20:36:06.417Z,100.00
2023-04-29T20:41:08.048Z,100.00
2023-04-29T20:46:11.806Z,100.00
2023-04-29T20:51:13.622Z,100.00
2023-04-29T20:56:16.205Z,100.00
2023-04-29T21:01:19.430Z,100.00
2023-04-29T21:06:21.025Z,100.00
2023-04-29T21:11:22.573Z,100.00
2023-04-29T21:16:24.204Z,100.00
2023-04-29T21:21:26.106Z,100.00
2023-04-29T21:26:27.571Z,100.00
2023-04-29T21:31:30.460Z,100.00
2023-04-29T21:36:32.077Z,100.00
2023-04-29T21:41:37.454Z,100.00
2023-04-29T21:46:39.534Z,100.00
2023-04-29T21:51:41.254Z,100.00
2023-04-29T21:56:42.771Z,100.00
2023-04-29T22:01:47.279Z,100.00
2023-04-29T22:06:48.848Z,100.00
2023-04-29T22:11:50.337Z,100.00
2023-04-29T22:16:51.990Z,100.00
2023-04-29T22:21:53.528Z,100.00
2023-04-29T22:26:55.057Z,100.00
2023-04-29T22:31:56.706Z,100.00
2023-04-29T22:36:58.324Z,100.00
2023-04-29T22:41:59.874Z,100.00
2023-04-29T22:47:01.719Z,100.00
2023-04-29T22:52:03.205Z,100.00
2023-04-29T23:19:56.222Z,100.00
2023-04-29T23:24:57.968Z,100.00
2023-04-29T23:30:00.218Z,100.00
2023-04-29T23:35:01.751Z,100.00
2023-04-29T23:40:04.751Z,100.00
2023-04-29T23:45:06.842Z,100.00
2023-04-29T23:50:08.859Z,100.00
2023-04-29T23:55:10.514Z,100.00
